Main page
METAR-TAF:

METAR-TAF

Airports :

Cardiff Airport

Cardiff, Wales

latitude: 51-24N, longitude: 003-21W, elevation: 67 m

Current weather observation

The report was made 42 minutes ago, at 15:50 UTC
Wind 13 kt from the East
Temperature 24°C
Humidity 38%
Pressure 1030 hPa
Visibility 10 km or more

METAR: EGFF 281550Z AUTO 08013KT 9999 NCD 24/09 Q1030

Time: 17:32 (16:32 UTC)

Forecast

The report was made 5 hours and 33 minutes ago, at 10:59 UTC
Forecast valid from 28 at 12 UTC to 29 at 12 UTC
Wind 8 kt from the East
Visibility 10 km or more
no clouds below 1500 m and no cumulonimbus

TAF: EGFF 281059Z 2812/2912 10008KT CAVOK

Weather observations and forecasts of more than 4000 airports (METAR and TAF reports).

The available stations are represented by yellow and red dots on the map.

Hover mouse over dot to see the name of the station.

Then click to see weather observations and forecasts.

To change the map : click on the green buttons with a black cross to zoom in, on the green button with a dash to zoom out, or on the green arrows for adjacent maps.


METAR-TAF: